createdAt,value
2023-01-11T00:02:50.619Z,7.20
2023-01-11T00:07:56.929Z,7.25
2023-01-11T00:13:03.029Z,7.27
2023-01-11T00:18:08.004Z,7.28
2023-01-11T00:23:11.932Z,7.31
2023-01-11T00:28:18.586Z,7.34
2023-01-11T00:33:24.166Z,7.40
2023-01-11T00:38:47.120Z,7.41
2023-01-11T00:44:09.588Z,7.38
2023-01-11T00:49:12.755Z,7.35
2023-01-11T00:54:15.994Z,7.40
2023-01-11T00:59:20.575Z,7.46
2023-01-11T01:04:23.705Z,7.52
2023-01-11T01:09:27.457Z,7.54
2023-01-11T01:14:33.870Z,7.58
2023-01-11T01:19:39.460Z,7.64
2023-01-11T01:24:42.512Z,7.63
2023-01-11T01:29:47.128Z,7.65
2023-01-11T01:34:50.212Z,7.66
2023-01-11T01:39:53.396Z,7.69
2023-01-11T01:45:01.093Z,7.73
2023-01-11T01:50:09.033Z,7.73
2023-01-11T01:55:17.611Z,7.76
2023-01-11T02:00:23.663Z,7.79
2023-01-11T02:05:27.673Z,7.80
2023-01-11T02:10:30.758Z,7.78
2023-01-11T02:15:36.695Z,7.77
2023-01-11T02:21:10.701Z,7.78
2023-01-11T02:26:59.295Z,7.78
2023-01-11T02:32:14.981Z,7.64
2023-01-11T02:37:29.005Z,7.55
2023-01-11T02:42:59.006Z,7.56
2023-01-11T02:48:12.949Z,7.54
2023-01-11T02:53:19.905Z,7.55
2023-01-11T02:58:26.708Z,7.52
2023-01-11T03:03:31.273Z,7.50
2023-01-11T03:09:11.424Z,7.51
2023-01-11T03:14:24.042Z,7.45
2023-01-11T03:19:35.921Z,7.44
2023-01-11T03:24:44.835Z,7.48
2023-01-11T03:29:53.719Z,7.51
2023-01-11T03:35:13.053Z,7.54
2023-01-11T03:40:20.422Z,7.53
2023-01-11T03:45:24.052Z,7.55
2023-01-11T03:50:30.863Z,7.55
2023-01-11T03:55:39.197Z,7.56
2023-01-11T04:00:43.174Z,7.59
2023-01-11T04:05:54.413Z,7.64
2023-01-11T04:10:57.833Z,7.64
2023-01-11T04:16:01.722Z,7.67
2023-01-11T04:21:06.716Z,7.69
2023-01-11T04:26:09.832Z,7.67
2023-01-11T04:31:13.172Z,7.68
2023-01-11T04:36:29.021Z,7.64
2023-01-11T04:41:49.453Z,7.60
2023-01-11T04:46:52.672Z,7.57
2023-01-11T04:52:03.246Z,7.57
2023-01-11T04:57:08.166Z,7.55
2023-01-11T05:02:11.278Z,7.56
2023-01-11T05:07:15.763Z,7.59
2023-01-11T05:12:22.624Z,7.59
2023-01-11T05:17:26.266Z,7.62
2023-01-11T05:22:31.012Z,7.69
2023-01-11T05:27:34.865Z,7.71
2023-01-11T05:32:38.203Z,7.73
2023-01-11T05:37:42.658Z,7.76
2023-01-11T05:42:47.560Z,7.75
2023-01-11T05:47:54.544Z,7.78
2023-01-11T05:52:59.462Z,7.80
2023-01-11T05:58:02.976Z,7.81
2023-01-11T06:03:07.338Z,7.84
2023-01-11T06:08:12.424Z,7.99
2023-01-11T06:13:30.795Z,8.04
2023-01-11T06:18:37.180Z,8.14
2023-01-11T06:23:44.776Z,8.11
2023-01-11T06:28:51.788Z,8.07
2023-01-11T06:33:54.975Z,8.17
2023-01-11T06:38:59.609Z,8.23
2023-01-11T06:44:02.966Z,8.26
2023-01-11T06:49:06.084Z,8.20
2023-01-11T06:54:10.732Z,8.17
2023-01-11T06:59:14.084Z,8.16
2023-01-11T07:04:18.827Z,8.16
2023-01-11T07:09:23.524Z,8.19
2023-01-11T07:14:26.834Z,8.23
2023-01-11T07:19:30.061Z,8.31
2023-01-11T07:24:34.630Z,8.36
2023-01-11T07:29:37.817Z,8.42
2023-01-11T07:34:41.052Z,8.47
2023-01-11T07:39:46.734Z,8.52
2023-01-11T07:44:49.936Z,8.58
2023-01-11T07:49:53.455Z,8.61
2023-01-11T07:55:02.746Z,8.64
2023-01-11T08:00:07.167Z,8.71
2023-01-11T08:05:11.196Z,8.79
2023-01-11T08:10:16.411Z,8.88
2023-01-11T08:15:20.167Z,8.97
2023-01-11T08:20:27.132Z,9.04
2023-01-11T08:25:32.827Z,9.13
2023-01-11T08:30:37.155Z,9.21
2023-01-11T08:35:40.610Z,9.33
2023-01-11T08:40:45.148Z,9.41
2023-01-11T08:45:48.292Z,9.49
2023-01-11T08:50:51.438Z,9.61
2023-01-11T08:55:55.986Z,9.72
2023-01-11T09:01:00.213Z,9.82
2023-01-11T09:06:03.628Z,9.90
2023-01-11T09:11:28.123Z,10.00
2023-01-11T09:16:31.352Z,10.10
2023-01-11T09:21:34.450Z,10.14
2023-01-11T09:26:40.172Z,10.21
2023-01-11T09:31:43.311Z,10.26
2023-01-11T09:36:48.746Z,10.31
2023-01-11T09:42:27.197Z,10.35
2023-01-11T09:47:36.923Z,10.43
2023-01-11T09:52:43.756Z,10.47
2023-01-11T09:57:59.588Z,10.55
2023-01-11T10:03:36.609Z,10.65
2023-01-11T10:18:41.725Z,10.75
2023-01-11T10:20:01.861Z,10.81
2023-01-11T10:25:16.990Z,10.86
2023-01-11T10:30:41.784Z,10.90
2023-01-11T10:36:10.531Z,10.98
2023-01-11T10:41:26.602Z,11.02
2023-01-11T10:46:33.491Z,11.07
2023-01-11T10:51:41.314Z,11.08
2023-01-11T10:57:05.212Z,11.11
2023-01-11T11:02:29.281Z,11.14
2023-01-11T11:07:42.873Z,11.19
2023-01-11T11:12:55.597Z,11.23
2023-01-11T11:18:00.747Z,11.18
2023-01-11T11:23:04.771Z,11.11
2023-01-11T11:28:09.802Z,11.08
2023-01-11T11:33:21.370Z,11.05
2023-01-11T11:38:26.296Z,10.96
2023-01-11T11:43:29.523Z,10.93
2023-01-11T11:48:35.660Z,10.89
2023-01-11T11:53:44.275Z,10.86
2023-01-11T11:58:48.186Z,10.89
2023-01-11T12:03:54.616Z,10.91
2023-01-11T12:09:01.369Z,10.91
2023-01-11T12:14:18.225Z,10.90
2023-01-11T12:19:31.448Z,10.93
2023-01-11T12:24:34.723Z,10.92
2023-01-11T12:30:14.616Z,10.90
2023-01-11T12:35:37.286Z,10.88
2023-01-11T12:40:50.956Z,10.91
2023-01-11T12:46:04.556Z,10.90
2023-01-11T12:51:25.236Z,10.91
2023-01-11T12:56:52.087Z,10.93
2023-01-11T13:02:05.803Z,10.94
2023-01-11T13:07:21.170Z,10.95
2023-01-11T13:12:31.687Z,11.00
2023-01-11T13:17:41.124Z,11.00
2023-01-11T13:22:51.031Z,11.05
2023-01-11T13:27:56.560Z,11.06
2023-01-11T13:33:06.043Z,11.08
2023-01-11T13:38:23.179Z,11.09
2023-01-11T13:43:33.741Z,11.08
2023-01-11T13:48:43.682Z,11.06
2023-01-11T13:53:54.720Z,11.04
2023-01-11T13:59:04.070Z,11.01
2023-01-11T14:04:11.619Z,11.03
2023-01-11T14:09:35.240Z,11.11
2023-01-11T14:15:00.919Z,11.14
2023-01-11T14:20:12.833Z,11.12
2023-01-11T14:25:23.523Z,11.06
2023-01-11T14:30:45.579Z,11.06
2023-01-11T14:36:09.155Z,11.03
2023-01-11T14:41:46.749Z,11.02
2023-01-11T14:47:04.157Z,10.99
2023-01-11T14:52:12.725Z,10.96
2023-01-11T14:57:40.808Z,10.99
2023-01-11T15:02:44.088Z,10.95
2023-01-11T15:07:51.816Z,10.98
2023-01-11T15:12:59.212Z,10.92
2023-01-11T15:18:25.627Z,10.89
2023-01-11T15:23:38.730Z,10.88
2023-01-11T15:28:50.477Z,10.89
2023-01-11T15:33:55.831Z,10.87
2023-01-11T15:39:04.199Z,10.86
2023-01-11T15:44:38.641Z,10.88
2023-01-11T15:50:08.458Z,10.90
2023-01-11T15:55:49.404Z,10.86
2023-01-11T16:01:21.879Z,10.86
2023-01-11T16:06:34.503Z,10.82
2023-01-11T16:11:48.065Z,10.80
2023-01-11T16:16:55.846Z,10.82
2023-01-11T16:22:02.470Z,10.78
2023-01-11T16:27:06.096Z,10.78
2023-01-11T16:32:21.796Z,10.78
2023-01-11T16:37:29.656Z,10.78
2023-01-11T16:42:40.811Z,10.76
2023-01-11T16:48:05.769Z,10.76
2023-01-11T16:53:14.968Z,10.73
2023-01-11T16:58:27.060Z,10.72
2023-01-11T17:03:35.043Z,10.73
2023-01-11T17:08:39.617Z,10.72
2023-01-11T17:14:12.599Z,10.71
2023-01-11T17:19:19.998Z,10.58
2023-01-11T17:24:27.524Z,10.56
2023-01-11T17:29:40.653Z,10.57
2023-01-11T17:34:52.433Z,10.54
2023-01-11T17:39:56.365Z,10.51
2023-01-11T17:45:14.968Z,10.48
2023-01-11T17:50:37.985Z,10.47
2023-01-11T17:55:52.117Z,10.42
2023-01-11T18:01:18.624Z,10.36
2023-01-11T18:06:33.112Z,10.27
2023-01-11T18:11:40.480Z,10.20
2023-01-11T18:16:57.147Z,10.15
2023-01-11T18:22:01.994Z,10.06
2023-01-11T18:27:18.822Z,9.95
2023-01-11T18:32:22.287Z,9.84
2023-01-11T18:37:26.919Z,9.77
2023-01-11T18:42:32.963Z,9.71
2023-01-11T18:47:36.605Z,9.64
2023-01-11T18:52:43.971Z,9.61
2023-01-11T18:57:52.189Z,9.58
2023-01-11T19:02:57.670Z,9.63
2023-01-11T19:08:02.425Z,9.75
2023-01-11T19:13:05.549Z,9.79
2023-01-11T19:18:08.743Z,9.69
2023-01-11T19:23:13.230Z,9.58
2023-01-11T19:28:29.042Z,9.54
2023-01-11T19:33:33.811Z,9.51
2023-01-11T19:38:44.935Z,9.50
2023-01-11T19:43:56.863Z,9.50
2023-01-11T19:49:00.455Z,9.48
2023-01-11T19:54:06.320Z,9.43
2023-01-11T19:59:09.651Z,9.41
2023-01-11T20:04:13.498Z,9.39
2023-01-11T20:09:19.753Z,9.35
2023-01-11T20:14:22.977Z,9.32
2023-01-11T20:19:29.697Z,9.26
2023-01-11T20:24:34.193Z,9.19
2023-01-11T20:29:37.362Z,9.12
2023-01-11T20:34:40.718Z,9.07
2023-01-11T20:39:45.298Z,9.01
2023-01-11T20:44:48.444Z,8.92
2023-01-11T20:49:51.614Z,8.85
2023-01-11T20:54:56.305Z,8.82
2023-01-11T20:59:59.437Z,8.80
2023-01-11T21:05:04.498Z,8.73
2023-01-11T21:10:10.878Z,8.72
2023-01-11T21:15:14.158Z,8.71
2023-01-11T21:20:18.448Z,8.69
2023-01-11T21:25:23.135Z,8.68
2023-01-11T21:30:26.298Z,8.66
2023-01-11T21:35:29.561Z,8.61
2023-01-11T21:40:34.243Z,8.61
2023-01-11T21:45:37.425Z,8.58
2023-01-11T21:50:40.782Z,8.55
2023-01-11T21:55:45.460Z,8.52
2023-01-11T22:00:48.636Z,8.57
2023-01-11T22:05:52.468Z,8.56
2023-01-11T22:11:01.249Z,8.54
2023-01-11T22:16:06.441Z,8.49
2023-01-11T22:21:12.464Z,8.44
2023-01-11T22:26:18.971Z,8.40
2023-01-11T22:31:22.341Z,8.36
2023-01-11T22:36:26.539Z,8.30
2023-01-11T22:41:31.387Z,8.23
2023-01-11T22:46:34.544Z,8.16
2023-01-11T22:51:38.008Z,8.10
2023-01-11T22:56:42.868Z,8.06
2023-01-11T23:01:46.027Z,8.01
2023-01-11T23:06:49.344Z,7.96
2023-01-11T23:12:11.366Z,7.91
2023-01-11T23:17:14.718Z,7.85
2023-01-11T23:22:18.147Z,7.83
2023-01-11T23:27:22.705Z,7.83
2023-01-11T23:32:25.912Z,7.82
2023-01-11T23:37:29.214Z,7.82
2023-01-11T23:42:35.594Z,7.81
2023-01-11T23:47:38.988Z,7.79
2023-01-11T23:52:42.266Z,7.78
2023-01-11T23:58:06.935Z,7.76
